Accueil
METAR-TAF:

METAR-TAF

Aéroports :

Aéroport international de Shanghai-Pudong

Shanghai-Pudong, Chine

latitude: 31-07N, longitude: 121-46E, altitude: 4 m

Observation

Le bulletin a été fait il y a 37 minutes, à 18:30 UTC
Vent 10 kt de sud/sud-est
Température 28°C
Humidité 84%
Pression 1003 hPa
Visibilité 10 km ou plus
Quelques nuages à une hauteur de 2000 ft

METAR: ZSPD 191830Z 16005MPS 9999 FEW020 28/25 Q1003 NOSIG

Heure: 03:07 (19:07 UTC)

Prévision

Le bulletin a été fait il y a 3 heures et 56 minutes, à 15:11 UTC
Prévision valable du 19 à 18 UTC au 20 à 18 UTC
Vent 10 kt de sud-est
Visibilité: 6000 m
Nuages fragmentés à une hauteur de 1500 ft

TAF: ZSPD 191511Z 1918/2018 14005MPS 6000 BKN015 TX32/2006Z TN26/1921Z

Observations et prévisions météorologiques de plus de 4000 aéroports (messages METAR et TAF).

Les stations disponibles sont représentées par des disques jaunes et rouges sur la carte.

Passer la souris dessus pour voir le nom de la station.

Cliquer dessus pour voir les observations et prévisions météorologiques.

Pour changer de carte: cliquez sur les boutons verts avec une croix noire pour zoomer, sur le bouton vert avec un tiret pour effectuer un zoom arrière, ou sur les flèches vertes pour les cartes adjacentes.


METAR-TAF: